createdAt,value
2022-12-05T00:01:36.348Z,41.63
2022-12-05T00:04:03.104Z,43.70
2022-12-05T00:06:29.534Z,43.00
2022-12-05T00:08:55.950Z,40.92
2022-12-05T00:11:22.410Z,41.20
2022-12-05T00:13:48.721Z,42.55
2022-12-05T00:16:15.109Z,39.58
2022-12-05T00:18:41.598Z,42.08
2022-12-05T00:21:07.993Z,41.30
2022-12-05T00:23:34.335Z,39.97
2022-12-05T00:26:00.772Z,39.50
2022-12-05T00:28:27.382Z,41.40
2022-12-05T00:30:53.701Z,40.13
2022-12-05T00:33:20.003Z,39.15
2022-12-05T00:35:46.315Z,39.10
2022-12-05T00:38:12.696Z,39.92
2022-12-05T00:40:39.065Z,40.05
2022-12-05T00:43:05.370Z,38.92
2022-12-05T00:45:31.902Z,39.47
2022-12-05T00:47:58.395Z,39.08
2022-12-05T00:50:24.697Z,38.40
2022-12-05T00:52:51.055Z,38.80
2022-12-05T00:55:17.378Z,39.40
2022-12-05T00:57:43.766Z,38.85
2022-12-05T01:00:10.123Z,37.60
2022-12-05T01:02:36.840Z,39.40
2022-12-05T01:05:03.160Z,38.35
2022-12-05T01:07:29.571Z,38.70
2022-12-05T01:09:56.138Z,37.80
2022-12-05T01:12:22.716Z,38.80
2022-12-05T01:14:49.107Z,38.38
2022-12-05T01:17:15.418Z,38.25
2022-12-05T01:19:42.062Z,39.50
2022-12-05T01:22:08.516Z,37.33
2022-12-05T01:24:34.962Z,35.92
2022-12-05T01:27:01.323Z,36.63
2022-12-05T01:29:27.580Z,38.08
2022-12-05T01:31:53.957Z,37.00
2022-12-05T01:34:20.338Z,37.42
2022-12-05T01:36:46.651Z,36.47
2022-12-05T01:39:13.035Z,35.80
2022-12-05T01:41:39.554Z,37.05
2022-12-05T01:44:05.969Z,38.00
2022-12-05T01:46:32.415Z,36.25
2022-12-05T01:48:58.782Z,36.63
2022-12-05T01:51:25.088Z,37.80
2022-12-05T01:53:51.522Z,36.58
2022-12-05T01:56:17.924Z,36.63
2022-12-05T01:58:44.258Z,36.20
2022-12-05T02:01:10.596Z,35.83
2022-12-05T02:03:37.122Z,36.20
2022-12-05T02:06:03.493Z,36.28
2022-12-05T02:08:30.256Z,34.10
2022-12-05T02:10:58.161Z,35.13
2022-12-05T02:13:27.001Z,34.97
2022-12-05T02:15:56.993Z,35.88
2022-12-05T02:18:23.823Z,36.90
2022-12-05T02:20:53.192Z,38.15
2022-12-05T02:23:19.540Z,35.13
2022-12-05T02:25:45.922Z,36.55
2022-12-05T02:28:12.307Z,36.83
2022-12-05T02:30:38.620Z,35.58
2022-12-05T02:33:04.938Z,33.95
2022-12-05T02:35:31.419Z,35.35
2022-12-05T02:37:57.883Z,34.75
2022-12-05T02:40:24.210Z,34.45
2022-12-05T02:42:50.535Z,34.53
2022-12-05T02:45:16.853Z,33.45
2022-12-05T02:47:43.247Z,33.97
2022-12-05T02:50:09.535Z,33.88
2022-12-05T02:52:35.819Z,32.80
2022-12-05T02:55:02.108Z,35.50
2022-12-05T02:57:28.504Z,32.42
2022-12-05T02:59:54.877Z,35.15
2022-12-05T03:02:21.316Z,35.17
2022-12-05T03:04:47.616Z,35.33
2022-12-05T03:07:13.907Z,32.90
2022-12-05T03:09:40.255Z,34.10
2022-12-05T03:12:06.611Z,34.17
2022-12-05T03:14:33.231Z,33.38
2022-12-05T03:16:59.708Z,32.58
2022-12-05T03:19:25.989Z,32.13
2022-12-05T03:21:52.309Z,31.15
2022-12-05T03:24:18.575Z,32.70
2022-12-05T03:26:44.911Z,31.63
2022-12-05T03:29:11.303Z,33.35
2022-12-05T03:31:37.592Z,31.92
2022-12-05T03:34:03.900Z,31.55
2022-12-05T03:36:30.255Z,30.92
2022-12-05T03:38:56.618Z,30.27
2022-12-05T03:41:22.919Z,30.48
2022-12-05T03:43:49.287Z,30.33
2022-12-05T03:46:15.705Z,29.42
2022-12-05T03:48:42.133Z,31.42
2022-12-05T03:51:08.446Z,31.77
2022-12-05T03:53:34.836Z,29.98
2022-12-05T03:56:01.165Z,30.52
2022-12-05T03:58:27.430Z,28.70
2022-12-05T04:00:53.772Z,30.27
2022-12-05T04:03:20.161Z,29.00
2022-12-05T04:05:46.514Z,28.48
2022-12-05T04:08:13.052Z,31.75
2022-12-05T04:10:39.436Z,31.05
2022-12-05T04:13:05.784Z,29.33
2022-12-05T04:15:32.183Z,27.65
2022-12-05T04:17:58.623Z,28.92
2022-12-05T04:20:24.880Z,27.42
2022-12-05T04:22:51.235Z,26.98
2022-12-05T04:25:17.503Z,27.00
2022-12-05T04:27:43.933Z,27.63
2022-12-05T04:30:10.274Z,27.65
2022-12-05T04:32:36.583Z,28.20
2022-12-05T04:35:02.864Z,26.40
2022-12-05T04:37:29.173Z,26.40
2022-12-05T04:39:55.768Z,25.80
2022-12-05T04:42:22.659Z,26.27
2022-12-05T04:44:48.976Z,24.88
2022-12-05T04:47:15.666Z,25.00
2022-12-05T04:49:42.018Z,26.83
2022-12-05T04:52:08.374Z,25.83
2022-12-05T04:54:34.697Z,24.85
2022-12-05T04:57:01.410Z,25.38
2022-12-05T04:59:27.966Z,25.95
2022-12-05T05:01:54.322Z,25.55
2022-12-05T05:04:20.733Z,25.33
2022-12-05T05:06:47.096Z,24.25
2022-12-05T05:09:13.440Z,24.77
2022-12-05T05:11:39.860Z,23.85
2022-12-05T05:14:06.251Z,24.58
2022-12-05T05:16:32.624Z,24.25
2022-12-05T05:18:59.059Z,22.70
2022-12-05T05:21:25.404Z,23.35
2022-12-05T05:23:51.784Z,22.75
2022-12-05T05:26:18.190Z,23.20
2022-12-05T05:28:44.475Z,23.67
2022-12-05T05:31:10.891Z,22.23
2022-12-05T05:33:37.315Z,22.88
2022-12-05T05:36:03.756Z,22.92
2022-12-05T05:38:30.135Z,21.33
2022-12-05T05:40:56.438Z,22.13
2022-12-05T05:43:22.750Z,20.98
2022-12-05T05:45:49.034Z,21.45
2022-12-05T05:48:15.357Z,21.13
2022-12-05T05:50:41.646Z,21.13
2022-12-05T05:53:07.995Z,22.33
2022-12-05T05:55:34.344Z,20.98
2022-12-05T05:58:00.790Z,20.83
2022-12-05T06:00:27.025Z,20.60
2022-12-05T06:02:53.571Z,20.90
2022-12-05T06:05:19.971Z,21.10
2022-12-05T06:07:46.614Z,19.20
2022-12-05T06:10:12.911Z,20.65
2022-12-05T06:12:39.173Z,20.20
2022-12-05T06:15:05.636Z,20.48
2022-12-05T06:17:31.937Z,19.27
2022-12-05T06:19:58.496Z,20.70
2022-12-05T06:22:25.040Z,20.55
2022-12-05T06:24:51.411Z,20.25
2022-12-05T06:27:17.696Z,20.05
2022-12-05T06:29:43.962Z,19.90
2022-12-05T06:32:10.309Z,18.80
2022-12-05T06:34:36.667Z,19.65
2022-12-05T06:37:03.032Z,19.85
2022-12-05T06:39:29.487Z,18.55
2022-12-05T06:41:55.872Z,20.02
2022-12-05T06:44:22.265Z,19.58
2022-12-05T06:46:48.578Z,18.95
2022-12-05T06:49:14.897Z,19.80
2022-12-05T06:51:41.360Z,19.17
2022-12-05T06:54:07.681Z,18.90
2022-12-05T06:56:34.094Z,17.88
2022-12-05T06:59:00.339Z,18.38
2022-12-05T07:01:26.835Z,18.55
2022-12-05T07:03:53.181Z,18.70
2022-12-05T07:06:19.468Z,18.67
2022-12-05T07:08:45.832Z,19.30
2022-12-05T07:11:12.132Z,18.05
2022-12-05T07:13:38.481Z,18.35
2022-12-05T07:16:05.066Z,17.63
2022-12-05T07:18:31.879Z,18.08
2022-12-05T07:21:14.012Z,17.85
2022-12-05T07:23:40.778Z,19.20
2022-12-05T07:26:07.398Z,18.02
2022-12-05T07:28:33.871Z,18.33
2022-12-05T07:31:00.205Z,18.10
2022-12-05T07:33:26.591Z,18.02
2022-12-05T07:35:52.892Z,18.20
2022-12-05T07:38:19.496Z,17.85
2022-12-05T07:40:45.921Z,17.35
2022-12-05T07:43:12.318Z,17.77
2022-12-05T07:45:38.724Z,17.90
2022-12-05T07:48:05.103Z,18.75
2022-12-05T07:50:31.638Z,17.95
2022-12-05T07:52:57.954Z,18.50
2022-12-05T07:55:24.428Z,18.02
2022-12-05T07:57:50.711Z,17.80
2022-12-05T08:00:17.029Z,17.33
2022-12-05T08:02:43.503Z,17.98
2022-12-05T08:05:09.831Z,17.48
2022-12-05T08:07:36.154Z,17.40
2022-12-05T08:10:02.475Z,18.02
2022-12-05T08:12:28.765Z,18.65
2022-12-05T08:14:55.018Z,19.50
2022-12-05T08:17:21.399Z,17.10
2022-12-05T08:19:47.734Z,17.95
2022-12-05T08:22:14.030Z,18.30
2022-12-05T08:24:40.361Z,18.42
2022-12-05T08:27:06.624Z,17.75
2022-12-05T08:29:32.912Z,17.90
2022-12-05T08:31:59.268Z,17.15
2022-12-05T08:34:25.714Z,19.20
2022-12-05T08:36:52.094Z,18.17
2022-12-05T08:39:18.545Z,18.13
2022-12-05T08:41:44.965Z,18.70
2022-12-05T08:44:11.453Z,18.08
2022-12-05T08:46:37.807Z,17.55
2022-12-05T08:49:04.191Z,18.02
2022-12-05T08:51:30.579Z,18.35
2022-12-05T08:53:56.883Z,17.38
2022-12-05T08:56:27.244Z,18.00
2022-12-05T08:59:01.421Z,18.42
2022-12-05T09:01:31.196Z,17.50
2022-12-05T09:03:57.605Z,19.20
2022-12-05T09:06:23.987Z,18.95
2022-12-05T09:08:50.445Z,17.65
2022-12-05T09:11:16.719Z,19.58
2022-12-05T09:13:43.081Z,18.55
2022-12-05T09:16:09.440Z,17.85
2022-12-05T09:18:35.794Z,18.73
2022-12-05T09:21:02.120Z,19.25
2022-12-05T09:23:28.412Z,20.27
2022-12-05T09:25:54.747Z,21.48
2022-12-05T09:28:21.121Z,23.25
2022-12-05T09:30:47.583Z,23.45
2022-12-05T09:33:13.918Z,25.23
2022-12-05T09:35:40.329Z,29.33
2022-12-05T09:38:06.691Z,35.35
2022-12-05T09:40:33.020Z,44.72
2022-12-05T09:42:59.363Z,48.10
2022-12-05T09:45:25.710Z,50.40
2022-12-05T09:47:51.984Z,54.97
2022-12-05T09:50:19.052Z,58.35
2022-12-05T09:52:45.474Z,62.78
2022-12-05T09:55:11.735Z,65.43
2022-12-05T09:57:38.133Z,64.53
2022-12-05T10:00:04.787Z,66.43
2022-12-05T10:02:31.227Z,69.10
2022-12-05T10:05:00.700Z,73.00
2022-12-05T10:07:27.637Z,73.85
2022-12-05T10:09:53.960Z,73.20
2022-12-05T10:12:20.286Z,77.32
2022-12-05T10:14:46.645Z,82.30
2022-12-05T10:17:12.970Z,81.85
2022-12-05T10:19:39.510Z,81.28
2022-12-05T10:22:05.872Z,83.88
2022-12-05T10:24:32.178Z,88.00
2022-12-05T10:26:58.462Z,90.55
2022-12-05T10:29:24.755Z,92.07
2022-12-05T10:31:51.085Z,96.28
2022-12-05T10:34:17.437Z,94.65
2022-12-05T10:36:43.949Z,93.40
2022-12-05T10:39:11.648Z,99.15
2022-12-05T10:41:38.101Z,104.78
2022-12-05T10:44:04.580Z,98.63
2022-12-05T10:46:30.912Z,109.53
2022-12-05T10:48:57.564Z,109.65
2022-12-05T10:51:23.811Z,112.05
2022-12-05T10:53:50.217Z,117.25
2022-12-05T10:56:31.089Z,111.80
2022-12-05T10:58:58.543Z,112.05
2022-12-05T11:01:26.472Z,114.78
2022-12-05T11:03:53.427Z,113.72
2022-12-05T11:06:19.753Z,115.47
2022-12-05T11:11:32.508Z,114.60
2022-12-05T11:13:58.860Z,115.43
2022-12-05T11:16:25.344Z,110.53
2022-12-05T11:18:51.853Z,115.10
2022-12-05T11:21:18.280Z,107.60
2022-12-05T11:23:44.596Z,111.57
2022-12-05T11:26:11.066Z,108.97
2022-12-05T11:28:37.460Z,109.50
2022-12-05T11:31:03.834Z,107.97
2022-12-05T11:38:47.158Z,100.95
2022-12-05T11:41:13.497Z,102.40
2022-12-05T11:43:39.959Z,101.50
2022-12-05T11:46:06.635Z,102.32
2022-12-05T11:48:33.249Z,98.93
2022-12-05T11:50:59.754Z,96.50
2022-12-05T11:53:26.268Z,95.85
2022-12-05T11:55:52.723Z,93.90
2022-12-05T11:58:19.091Z,92.00
2022-12-05T12:00:45.437Z,89.63
2022-12-05T12:03:12.905Z,90.20
2022-12-05T12:05:39.552Z,90.18
2022-12-05T12:08:05.842Z,87.22
2022-12-05T12:10:32.194Z,86.30
2022-12-05T12:12:58.655Z,84.03
2022-12-05T12:15:24.887Z,81.22
2022-12-05T12:17:51.296Z,80.97
2022-12-05T12:20:17.696Z,78.10
2022-12-05T12:22:44.007Z,79.95
2022-12-05T12:25:10.567Z,79.43
2022-12-05T12:27:37.090Z,73.32
2022-12-05T12:30:03.362Z,76.90
2022-12-05T12:32:29.902Z,74.30
2022-12-05T12:34:56.564Z,71.22
2022-12-05T12:37:23.394Z,72.25
2022-12-05T12:39:49.719Z,74.25
2022-12-05T12:42:16.053Z,70.68
2022-12-05T12:44:42.495Z,67.90
2022-12-05T12:47:08.862Z,67.82
2022-12-05T12:49:35.320Z,64.93
2022-12-05T12:52:01.669Z,65.57
2022-12-05T12:54:47.328Z,62.80
2022-12-05T12:57:19.303Z,61.00
2022-12-05T12:59:48.451Z,55.42
2022-12-05T13:02:15.048Z,64.03
2022-12-05T13:04:41.812Z,177.10
2022-12-05T13:07:08.280Z,187.50
2022-12-05T13:09:34.681Z,204.73
2022-12-05T13:12:01.036Z,223.05
2022-12-05T13:14:27.329Z,217.85
2022-12-05T13:16:53.853Z,203.10
2022-12-05T13:19:20.424Z,206.35
2022-12-05T13:21:47.086Z,189.43
2022-12-05T13:24:13.642Z,185.55
2022-12-05T13:26:39.898Z,177.20
2022-12-05T13:29:06.289Z,176.65
2022-12-05T13:31:32.608Z,172.95
2022-12-05T13:33:58.994Z,165.45
2022-12-05T13:36:25.274Z,225.82
2022-12-05T13:38:51.591Z,262.55
2022-12-05T13:41:17.901Z,267.23
2022-12-05T13:43:48.665Z,256.70
2022-12-05T13:46:19.800Z,253.82
2022-12-05T13:48:46.475Z,251.60
2022-12-05T13:51:13.108Z,245.00
2022-12-05T13:53:39.485Z,235.43
2022-12-05T13:56:05.909Z,233.38
2022-12-05T13:58:32.253Z,224.32
2022-12-05T14:00:58.853Z,219.05
2022-12-05T14:03:25.267Z,213.43
2022-12-05T14:05:51.739Z,212.43
2022-12-05T14:08:18.100Z,200.25
2022-12-05T14:10:44.396Z,189.73
2022-12-05T14:13:10.990Z,189.05
2022-12-05T14:15:37.555Z,184.13
2022-12-05T14:18:04.040Z,230.40
2022-12-05T14:20:30.404Z,278.60
2022-12-05T14:22:56.746Z,305.50
2022-12-05T14:25:23.097Z,312.15
2022-12-05T14:27:49.569Z,315.52
2022-12-05T14:30:15.907Z,300.15
2022-12-05T14:32:42.410Z,302.48
2022-12-05T14:35:08.664Z,291.25
2022-12-05T14:37:35.077Z,288.77
2022-12-05T14:40:01.584Z,278.42
2022-12-05T14:42:28.136Z,272.80
2022-12-05T14:44:54.411Z,439.77
2022-12-05T14:47:21.005Z,349.48
2022-12-05T14:49:48.663Z,339.85
2022-12-05T14:52:15.113Z,325.25
2022-12-05T14:54:41.827Z,313.65
2022-12-05T14:57:08.147Z,322.55
2022-12-05T14:59:34.413Z,311.20
2022-12-05T15:02:00.911Z,310.10
2022-12-05T15:04:27.307Z,288.83
2022-12-05T15:06:53.624Z,288.92
2022-12-05T15:09:36.406Z,283.27
2022-12-05T15:12:09.383Z,317.55
2022-12-05T15:14:36.178Z,334.98
2022-12-05T15:17:02.485Z,371.17
2022-12-05T15:19:28.800Z,379.10
2022-12-05T15:21:55.056Z,367.88
2022-12-05T15:24:21.447Z,364.83
2022-12-05T15:26:48.751Z,360.83
2022-12-05T15:29:15.538Z,504.20
2022-12-05T15:31:41.902Z,416.67
2022-12-05T15:34:08.391Z,394.33
2022-12-05T15:36:34.718Z,411.30
2022-12-05T15:39:01.081Z,424.50
2022-12-05T15:41:27.392Z,416.20
2022-12-05T15:43:53.770Z,393.58
2022-12-05T15:46:20.311Z,342.08
2022-12-05T15:48:46.793Z,302.20
2022-12-05T15:51:13.076Z,262.35
2022-12-05T15:53:39.460Z,235.20
2022-12-05T15:56:05.850Z,214.13
2022-12-05T15:58:32.341Z,195.05
2022-12-05T16:00:59.072Z,256.25
2022-12-05T16:03:25.363Z,230.50
2022-12-05T16:05:51.807Z,215.43
2022-12-05T16:08:18.320Z,196.13
2022-12-05T16:10:44.875Z,177.90
2022-12-05T16:13:11.188Z,166.80
2022-12-05T16:15:37.883Z,210.82
2022-12-05T16:18:04.403Z,219.98
2022-12-05T16:20:31.000Z,230.52
2022-12-05T16:22:57.337Z,210.07
2022-12-05T16:25:23.679Z,204.15
2022-12-05T16:27:50.032Z,189.50
2022-12-05T16:30:16.610Z,175.65
2022-12-05T16:32:42.971Z,171.90
2022-12-05T16:35:09.232Z,160.15
2022-12-05T16:37:35.484Z,149.68
2022-12-05T16:40:02.112Z,257.83
2022-12-05T16:42:28.707Z,360.38
2022-12-05T16:44:55.016Z,342.95
2022-12-05T16:47:21.551Z,329.23
2022-12-05T16:49:47.816Z,308.60
2022-12-05T16:52:14.199Z,291.13
2022-12-05T16:54:40.641Z,283.75
2022-12-05T16:57:07.109Z,285.70
2022-12-05T16:59:33.390Z,274.80
2022-12-05T17:01:59.804Z,257.08
2022-12-05T17:04:26.446Z,255.32
2022-12-05T17:06:53.015Z,239.18
2022-12-05T17:09:19.296Z,226.43
2022-12-05T17:11:45.745Z,216.43
2022-12-05T17:14:12.128Z,330.42
2022-12-05T17:16:38.445Z,356.23
2022-12-05T17:19:04.832Z,325.60
2022-12-05T17:21:31.334Z,310.23
2022-12-05T17:23:57.714Z,297.85
2022-12-05T17:26:23.948Z,283.10
2022-12-05T17:28:50.227Z,261.80
2022-12-05T17:31:16.795Z,252.82
2022-12-05T17:33:43.250Z,243.93
2022-12-05T17:36:09.791Z,309.65
2022-12-05T17:38:36.204Z,331.70
2022-12-05T17:41:06.996Z,317.63
2022-12-05T17:43:33.742Z,318.83
2022-12-05T17:46:00.310Z,318.73
2022-12-05T17:48:26.583Z,329.33
2022-12-05T17:50:52.892Z,353.05
2022-12-05T17:53:19.547Z,346.88
2022-12-05T17:55:45.957Z,340.35
2022-12-05T17:58:12.416Z,342.25
2022-12-05T18:00:38.963Z,369.67
2022-12-05T18:03:05.419Z,406.40
2022-12-05T18:05:31.887Z,436.65
2022-12-05T18:07:58.393Z,269.08
2022-12-05T18:10:24.751Z,258.00
2022-12-05T18:12:51.050Z,257.58
2022-12-05T18:15:17.631Z,282.27
2022-12-05T18:17:44.045Z,299.70
2022-12-05T18:20:10.498Z,330.67
2022-12-05T18:22:36.790Z,278.52
2022-12-05T18:25:03.152Z,262.73
2022-12-05T18:27:29.647Z,253.18
2022-12-05T18:29:56.104Z,261.35
2022-12-05T18:32:22.470Z,262.67
2022-12-05T18:34:48.803Z,250.25
2022-12-05T18:37:15.111Z,244.02
2022-12-05T18:39:41.518Z,239.18
2022-12-05T18:42:14.617Z,240.57
2022-12-05T18:44:41.579Z,242.23
2022-12-05T18:47:08.027Z,273.50
2022-12-05T18:49:34.352Z,338.42
2022-12-05T18:52:00.769Z,293.88
2022-12-05T18:54:27.094Z,353.73
2022-12-05T18:56:53.536Z,343.52
2022-12-05T18:59:19.974Z,328.48
2022-12-05T19:01:46.298Z,401.75
2022-12-05T19:04:12.919Z,399.58
2022-12-05T19:06:39.382Z,139.95
2022-12-05T19:09:05.729Z,71.75
2022-12-05T19:11:32.055Z,51.83
2022-12-05T19:13:58.402Z,72.38
2022-12-05T19:16:24.905Z,209.13
2022-12-05T19:18:51.229Z,157.10
2022-12-05T19:21:17.607Z,133.25
2022-12-05T19:23:43.956Z,125.68
2022-12-05T19:26:10.396Z,121.55
2022-12-05T19:28:36.738Z,118.90
2022-12-05T19:31:03.085Z,116.05
2022-12-05T19:33:29.377Z,115.50
2022-12-05T19:35:55.627Z,110.63
2022-12-05T19:38:21.911Z,113.47
2022-12-05T19:40:48.184Z,112.70
2022-12-05T19:43:14.475Z,108.50
2022-12-05T19:45:40.829Z,106.85
2022-12-05T19:48:07.166Z,104.38
2022-12-05T19:50:33.478Z,110.80
2022-12-05T19:52:59.802Z,101.82
2022-12-05T19:55:26.099Z,103.13
2022-12-05T19:57:52.364Z,102.57
2022-12-05T20:00:18.652Z,99.82
2022-12-05T20:02:46.003Z,99.15
2022-12-05T20:05:12.522Z,98.57
2022-12-05T20:07:38.891Z,99.18
2022-12-05T20:10:05.168Z,95.88
2022-12-05T20:12:31.686Z,96.03
2022-12-05T20:14:57.997Z,94.43
2022-12-05T20:17:24.292Z,94.18
2022-12-05T20:19:50.819Z,93.25
2022-12-05T20:22:17.284Z,90.10
2022-12-05T20:24:43.600Z,92.35
2022-12-05T20:27:10.090Z,87.97
2022-12-05T20:29:36.413Z,87.95
2022-12-05T20:32:02.741Z,89.20
2022-12-05T20:34:29.122Z,82.68
2022-12-05T20:36:55.365Z,85.72
2022-12-05T20:39:21.729Z,83.05
2022-12-05T20:41:48.156Z,82.63
2022-12-05T20:44:14.550Z,83.35
2022-12-05T20:46:40.895Z,82.20
2022-12-05T20:49:07.186Z,78.57
2022-12-05T20:51:33.782Z,76.47
2022-12-05T20:54:00.243Z,77.38
2022-12-05T20:56:26.647Z,77.10
2022-12-05T20:58:53.010Z,74.40
2022-12-05T21:01:19.354Z,74.28
2022-12-05T21:03:45.791Z,75.15
2022-12-05T21:06:12.085Z,72.45
2022-12-05T21:08:38.410Z,71.68
2022-12-05T21:11:04.708Z,70.97
2022-12-05T21:13:31.043Z,70.15
2022-12-05T21:15:57.398Z,66.97
2022-12-05T21:18:23.932Z,70.15
2022-12-05T21:20:50.305Z,66.78
2022-12-05T21:23:16.589Z,66.68
2022-12-05T21:25:42.884Z,68.13
2022-12-05T21:28:09.361Z,66.85
2022-12-05T21:30:35.618Z,64.65
2022-12-05T21:33:01.871Z,62.28
2022-12-05T21:35:28.299Z,65.32
2022-12-05T21:37:54.731Z,62.28
2022-12-05T21:40:21.201Z,61.08
2022-12-05T21:42:47.482Z,62.83
2022-12-05T21:45:13.720Z,57.75
2022-12-05T21:47:40.004Z,61.25
2022-12-05T21:50:06.466Z,57.10
2022-12-05T21:52:32.814Z,54.35
2022-12-05T21:54:59.052Z,57.63
2022-12-05T21:57:25.331Z,56.45
2022-12-05T21:59:51.653Z,54.50
2022-12-05T22:02:17.999Z,55.15
2022-12-05T22:04:44.428Z,54.47
2022-12-05T22:07:10.754Z,55.20
2022-12-05T22:09:37.054Z,53.03
2022-12-05T22:12:03.310Z,52.05
2022-12-05T22:14:29.569Z,51.90
2022-12-05T22:16:55.836Z,51.00
2022-12-05T22:19:22.158Z,53.70
2022-12-05T22:21:48.481Z,49.85
2022-12-05T22:24:14.782Z,47.70
2022-12-05T22:26:41.058Z,49.90
2022-12-05T22:29:07.440Z,46.65
2022-12-05T22:31:33.872Z,47.70
2022-12-05T22:34:00.412Z,47.75
2022-12-05T22:36:26.776Z,48.28
2022-12-05T22:38:53.066Z,45.58
2022-12-05T22:41:19.479Z,45.05
2022-12-05T22:43:45.756Z,46.00
2022-12-05T22:46:12.116Z,46.33
2022-12-05T22:48:38.456Z,46.53
2022-12-05T22:51:04.780Z,43.25
2022-12-05T22:53:31.103Z,44.80
2022-12-05T22:55:57.421Z,43.42
2022-12-05T22:58:23.768Z,41.17
2022-12-05T23:00:50.175Z,40.92
2022-12-05T23:03:16.663Z,40.58
2022-12-05T23:05:43.105Z,40.40
2022-12-05T23:08:09.586Z,39.40
2022-12-05T23:10:35.952Z,38.45
2022-12-05T23:13:02.231Z,40.97
2022-12-05T23:15:28.612Z,38.60
2022-12-05T23:17:55.263Z,37.03
2022-12-05T23:20:21.914Z,40.00
2022-12-05T23:22:48.256Z,40.30
2022-12-05T23:25:14.578Z,38.13
2022-12-05T23:27:40.881Z,39.17
2022-12-05T23:30:07.231Z,36.45
2022-12-05T23:32:33.530Z,37.13
2022-12-05T23:34:59.957Z,35.10
2022-12-05T23:37:26.371Z,34.83
2022-12-05T23:39:52.753Z,34.85
2022-12-05T23:42:19.130Z,35.35
2022-12-05T23:44:45.475Z,34.92
2022-12-05T23:47:11.834Z,34.75
2022-12-05T23:49:38.399Z,33.30
2022-12-05T23:52:04.692Z,33.05
2022-12-05T23:54:31.151Z,30.90
2022-12-05T23:56:57.477Z,32.28
2022-12-05T23:59:23.794Z,31.13
